aviador You're here:

KRCM Decoded Metar

in _UNIDENTIFIED
Report Time2017-03-24 00:15:00
UTC Time2017-03-24 00:07:38
Flight Rules vfr VFR
Wind160° at 14 Gusting to 17 kt
W.Decomp.*RWY 13: 12.9 kt HW 5.5 kt RCW
RWY 18: 12.5 kt HW 6.4 kt LCW
W.Rank160° ranks 2
Current wind is above 160° avg. (6.8)
Visibility9999 m
Phenomena:N/A
Clouds:N/A
Expected CloudBase > 6,000 ft AGL from Temp-Dew spread
CeilingNone
Temp23°C (ISA +10)
Dew Point08°C (38% RH)
AAT17.5°C
QNH1010 hPa
Density Alt2,162 ft
Elevation801 ft
Report Wrong Elevation
Raw Report
KRCM 240015Z AUTO 16014G17KT 10SM CLR 23/08 A2982 RMK AO2=

Extra information for KRCM:More info

Metar Taf Metar & Taf Last 4 Metars F.Rules Stats Wind Profile Meteogram Temp Stats Metar ALERT Operation Metar Decoded Social comments